createdAt,value
2017-12-10T00:00:48.353Z,0.37
2017-12-10T00:01:48.618Z,0.32
2017-12-10T00:02:48.628Z,0.32
2017-12-10T00:03:48.385Z,0.32
2017-12-10T00:04:48.396Z,0.36
2017-12-10T00:05:48.657Z,0.34
2017-12-10T00:06:48.416Z,0.5
2017-12-10T00:07:48.431Z,0.4
2017-12-10T00:08:48.188Z,0.34
2017-12-10T00:09:48.709Z,0.28
2017-12-10T00:10:48.801Z,0.28
2017-12-10T00:11:48.775Z,0.28
2017-12-10T00:12:48.484Z,0.36
2017-12-10T00:13:48.494Z,0.36
2017-12-10T00:14:48.760Z,0.32
2017-12-10T00:15:48.770Z,0.36
2017-12-10T00:16:48.527Z,0.34
2017-12-10T00:17:48.789Z,0.37
2017-12-10T00:18:48.801Z,0.39
2017-12-10T00:19:48.816Z,0.34
2017-12-10T00:20:48.827Z,0.43
2017-12-10T00:21:48.584Z,0.46
2017-12-10T00:22:48.883Z,0.55
2017-12-10T00:23:48.862Z,0.56
2017-12-10T00:24:48.614Z,0.55
2017-12-10T00:25:48.627Z,0.47
2017-12-10T00:26:48.940Z,0.56
2017-12-10T00:27:48.912Z,0.43
2017-12-10T00:28:48.409Z,0.58
2017-12-10T00:29:48.946Z,0.65
2017-12-10T00:30:48.681Z,0.59
2017-12-10T00:31:48.946Z,0.63
2017-12-10T00:32:48.956Z,0.56
2017-12-10T00:33:48.465Z,0.39
2017-12-10T00:34:48.979Z,0.5
2017-12-10T00:35:48.736Z,0.5
2017-12-10T00:36:49.012Z,0.5
2017-12-10T00:37:48.757Z,0.65
2017-12-10T00:38:49.024Z,0.5
2017-12-10T00:39:49.039Z,0.55
2017-12-10T00:40:49.043Z,0.63
2017-12-10T00:41:49.108Z,0.66
2017-12-10T00:42:49.066Z,0.55
2017-12-10T00:43:48.574Z,0.6
2017-12-10T00:44:48.839Z,0.62
2017-12-10T00:45:49.104Z,0.6
2017-12-10T00:46:49.118Z,0.58
2017-12-10T00:47:48.619Z,0.55
2017-12-10T00:48:49.139Z,0.52
2017-12-10T00:49:49.148Z,0.47
2017-12-10T00:50:49.165Z,0.47
2017-12-10T00:51:48.664Z,0.5
2017-12-10T00:52:49.180Z,0.62
2017-12-10T00:53:49.192Z,0.74
2017-12-10T00:54:49.202Z,0.59
2017-12-10T00:55:49.218Z,0.63
2017-12-10T00:56:48.771Z,0.59
2017-12-10T00:57:49.237Z,0.73
2017-12-10T00:58:49.008Z,0.77
2017-12-10T00:59:49.257Z,0.81
2017-12-10T01:00:49.270Z,0.8
2017-12-10T01:01:49.029Z,0.58
2017-12-10T01:02:48.789Z,0.66
2017-12-10T01:03:49.305Z,0.58
2017-12-10T01:04:49.318Z,0.47
2017-12-10T01:05:49.328Z,0.47
2017-12-10T01:06:48.833Z,0.6
2017-12-10T01:07:49.099Z,0.66
2017-12-10T01:08:49.360Z,0.58
2017-12-10T01:09:49.120Z,0.55
2017-12-10T01:10:49.385Z,0.4
2017-12-10T01:11:49.390Z,0.49
2017-12-10T01:12:49.406Z,0.46
2017-12-10T01:13:49.162Z,0.49
2017-12-10T01:14:49.172Z,0.5
2017-12-10T01:15:49.453Z,0.47
2017-12-10T01:16:49.214Z,0.47
2017-12-10T01:17:49.460Z,0.47
2017-12-10T01:18:48.969Z,0.39
2017-12-10T01:19:49.481Z,0.39
2017-12-10T01:20:49.492Z,0.34
2017-12-10T01:21:49.513Z,0.12
2017-12-10T01:22:49.529Z,0.29
2017-12-10T01:23:49.532Z,0.36
2017-12-10T01:24:49.539Z,0.34
2017-12-10T01:25:49.551Z,0.22
2017-12-10T01:26:49.307Z,0.29
2017-12-10T01:27:49.320Z,0.37
2017-12-10T01:28:49.333Z,0.28
2017-12-10T01:29:49.649Z,0.23
2017-12-10T01:30:49.610Z,0.21
2017-12-10T01:31:49.114Z,0.16
2017-12-10T01:32:49.631Z,0.16
2017-12-10T01:33:49.637Z,0.28
2017-12-10T01:34:49.645Z,0.31
2017-12-10T01:35:49.659Z,0.39
2017-12-10T01:36:49.669Z,0.31
2017-12-10T01:37:49.690Z,0.39
2017-12-10T01:38:49.207Z,0.31
2017-12-10T01:39:49.499Z,0.25
2017-12-10T01:40:49.461Z,0.41
2017-12-10T01:41:49.728Z,0.31
2017-12-10T01:42:49.482Z,0.36
2017-12-10T01:43:49.494Z,0.32
2017-12-10T01:44:49.553Z,0.43
2017-12-10T01:45:49.830Z,0.37
2017-12-10T01:46:49.787Z,0.25
2017-12-10T01:47:49.803Z,0.31
2017-12-10T01:48:49.809Z,0.23
2017-12-10T01:49:49.561Z,0.43
2017-12-10T01:50:49.579Z,0.41
2017-12-10T01:51:49.848Z,0.37
2017-12-10T01:52:49.852Z,0.29
2017-12-10T01:53:49.608Z,0.12
2017-12-10T01:54:49.953Z,0.04
2017-12-10T01:55:49.878Z,0.12
2017-12-10T01:56:49.894Z,0.12
2017-12-10T01:57:49.904Z,0.1
2017-12-10T01:58:49.915Z,0.15
2017-12-10T01:59:49.724Z,0.11
2017-12-10T02:00:49.943Z,0.15
2017-12-10T02:01:49.966Z,0.11
2017-12-10T02:02:49.957Z,0.18
2017-12-10T02:03:49.970Z,0.19
2017-12-10T02:04:49.729Z,0.22
2017-12-10T02:05:49.990Z,0.22
2017-12-10T02:06:49.994Z,0.19
2017-12-10T02:07:50.008Z,0.28
2017-12-10T02:08:49.780Z,0.39
2017-12-10T02:09:50.039Z,0.32
2017-12-10T02:10:49.793Z,0.32
2017-12-10T02:11:49.805Z,0.32
2017-12-10T02:12:49.818Z,0.23
2017-12-10T02:13:49.824Z,0.28
2017-12-10T02:14:50.149Z,0.26
2017-12-10T02:15:49.849Z,0.08
2017-12-10T02:16:49.861Z,0.31
2017-12-10T02:17:50.120Z,0.28
2017-12-10T02:18:50.134Z,0.29
2017-12-10T02:19:50.143Z,0.29
2017-12-10T02:20:50.161Z,0.21
2017-12-10T02:21:50.167Z,0.31
2017-12-10T02:22:49.923Z,0.29
2017-12-10T02:23:50.199Z,0.31
2017-12-10T02:24:50.202Z,0.31
2017-12-10T02:25:49.958Z,0.25
2017-12-10T02:26:49.968Z,0.28
2017-12-10T02:27:49.979Z,0.22
2017-12-10T02:28:49.989Z,0.29
2017-12-10T02:29:50.052Z,0.34
2017-12-10T02:30:50.265Z,0.23
2017-12-10T02:31:50.279Z,0.1
2017-12-10T02:32:50.286Z,0.22
2017-12-10T02:33:50.045Z,0.32
2017-12-10T02:34:50.312Z,0.23
2017-12-10T02:35:50.325Z,0.25
2017-12-10T02:36:50.331Z,0.29
2017-12-10T02:37:50.093Z,0.29
2017-12-10T02:38:50.102Z,0.31
2017-12-10T02:39:50.365Z,0.37
2017-12-10T02:40:50.380Z,0.26
2017-12-10T02:41:50.410Z,0.21
2017-12-10T02:42:50.144Z,0.16
2017-12-10T02:43:50.440Z,0.16
2017-12-10T02:44:50.468Z,0.07
2017-12-10T02:45:50.440Z,0.15
2017-12-10T02:46:50.464Z,0
2017-12-10T02:47:50.451Z,0.12
2017-12-10T02:48:50.227Z,0.16
2017-12-10T02:49:50.473Z,0.05
2017-12-10T02:50:50.231Z,0.07
2017-12-10T02:51:49.991Z,0.15
2017-12-10T02:52:50.257Z,0.05
2017-12-10T02:53:50.533Z,0.05
2017-12-10T02:54:50.274Z,0.18
2017-12-10T02:55:50.550Z,0.11
2017-12-10T02:56:50.298Z,0.05
2017-12-10T02:57:50.558Z,-0.06
2017-12-10T02:58:50.568Z,-0.13
2017-12-10T02:59:50.581Z,-0.15
2017-12-10T03:00:50.335Z,-0.21
2017-12-10T03:01:50.651Z,-0.28
2017-12-10T03:02:50.368Z,-0.2
2017-12-10T03:03:50.118Z,-0.31
2017-12-10T03:04:50.378Z,-0.2
2017-12-10T03:05:50.644Z,-0.31
2017-12-10T03:06:50.653Z,-0.21
2017-12-10T03:07:50.412Z,-0.29
2017-12-10T03:08:50.676Z,-0.18
2017-12-10T03:09:50.441Z,-0.2
2017-12-10T03:10:50.695Z,-0.2
2017-12-10T03:11:50.710Z,-0.18
2017-12-10T03:12:50.718Z,-0.15
2017-12-10T03:13:50.729Z,-0.07
2017-12-10T03:14:50.739Z,-0.07
2017-12-10T03:15:50.499Z,-0.03
2017-12-10T03:16:50.810Z,0.01
2017-12-10T03:17:50.773Z,0
2017-12-10T03:18:50.786Z,-0.11
2017-12-10T03:19:50.541Z,-0.18
2017-12-10T03:20:50.806Z,-0.17
2017-12-10T03:21:50.818Z,-0.15
2017-12-10T03:22:50.833Z,-0.25
2017-12-10T03:23:50.838Z,-0.18
2017-12-10T03:24:50.853Z,-0.15
2017-12-10T03:25:50.615Z,-0.23
2017-12-10T03:26:50.882Z,-0.17
2017-12-10T03:27:50.882Z,-0.17
2017-12-10T03:28:50.901Z,-0.29
2017-12-10T03:29:50.905Z,-0.23
2017-12-10T03:30:50.927Z,-0.39
2017-12-10T03:31:50.722Z,-0.43
2017-12-10T03:32:50.680Z,-0.54
2017-12-10T03:33:50.950Z,-0.53
2017-12-10T03:34:50.959Z,-0.64
2017-12-10T03:35:50.713Z,-0.57
2017-12-10T03:36:50.473Z,-0.61
2017-12-10T03:37:50.746Z,-0.46
2017-12-10T03:38:50.495Z,-0.44
2017-12-10T03:39:51.017Z,-0.49
2017-12-10T03:40:51.020Z,-0.39
2017-12-10T03:41:51.030Z,-0.44
2017-12-10T03:42:51.039Z,-0.5
2017-12-10T03:43:51.054Z,-0.53
2017-12-10T03:44:50.557Z,-0.59
2017-12-10T03:45:51.074Z,-0.61
2017-12-10T03:46:51.133Z,-0.53
2017-12-10T03:47:51.116Z,-0.57
2017-12-10T03:48:50.850Z,-0.59
2017-12-10T03:49:51.173Z,-0.47
2017-12-10T03:50:50.873Z,-0.52
2017-12-10T03:51:50.882Z,-0.64
2017-12-10T03:52:51.145Z,-0.71
2017-12-10T03:53:51.157Z,-0.68
2017-12-10T03:54:50.933Z,-0.64
2017-12-10T03:55:51.176Z,-0.74
2017-12-10T03:56:50.936Z,-0.78
2017-12-10T03:57:51.201Z,-0.65
2017-12-10T03:58:50.704Z,-0.68
2017-12-10T03:59:50.968Z,-0.82
2017-12-10T04:00:50.998Z,-0.85
2017-12-10T04:01:51.291Z,-0.93
2017-12-10T04:02:51.000Z,-0.94
2017-12-10T04:03:51.261Z,-0.75
2017-12-10T04:04:51.020Z,-0.86
2017-12-10T04:05:50.776Z,-0.75
2017-12-10T04:06:50.788Z,-0.77
2017-12-10T04:07:51.051Z,-0.78
2017-12-10T04:08:51.061Z,-0.86
2017-12-10T04:09:51.320Z,-0.94
2017-12-10T04:10:51.353Z,-1.04
2017-12-10T04:11:51.091Z,-1.08
2017-12-10T04:12:51.354Z,-1.04
2017-12-10T04:13:51.364Z,-0.99
2017-12-10T04:14:51.376Z,-1.04
2017-12-10T04:15:51.169Z,-1.07
2017-12-10T04:16:51.242Z,-1.11
2017-12-10T04:17:51.154Z,-1.15
2017-12-10T04:18:51.424Z,-1.11
2017-12-10T04:19:51.172Z,-1.17
2017-12-10T04:20:51.187Z,-1.23
2017-12-10T04:21:51.193Z,-1.07
2017-12-10T04:22:51.456Z,-1.01
2017-12-10T04:23:51.471Z,-1.01
2017-12-10T04:24:51.225Z,-0.94
2017-12-10T04:25:51.234Z,-0.85
2017-12-10T04:26:51.499Z,-0.74
2017-12-10T04:27:51.509Z,-0.72
2017-12-10T04:28:51.519Z,-0.75
2017-12-10T04:29:51.533Z,-0.78
2017-12-10T04:30:51.538Z,-0.74
2017-12-10T04:31:51.601Z,-0.94
2017-12-10T04:32:51.559Z,-0.97
2017-12-10T04:33:51.570Z,-0.93
2017-12-10T04:34:51.334Z,-1.01
2017-12-10T04:35:51.593Z,-1.02
2017-12-10T04:36:51.354Z,-0.96
2017-12-10T04:37:51.378Z,-0.91
2017-12-10T04:38:51.627Z,-0.93
2017-12-10T04:39:51.632Z,-1.08
2017-12-10T04:40:51.696Z,-0.99
2017-12-10T04:41:51.660Z,-0.93
2017-12-10T04:42:51.664Z,-0.96
2017-12-10T04:43:51.421Z,-0.99
2017-12-10T04:44:51.686Z,-0.96
2017-12-10T04:45:51.696Z,-1.02
2017-12-10T04:46:51.704Z,-1.02
2017-12-10T04:47:51.512Z,-1.04
2017-12-10T04:48:51.473Z,-1.02
2017-12-10T04:49:51.488Z,-1.11
2017-12-10T04:50:51.494Z,-1.01
2017-12-10T04:51:51.510Z,-1.05
2017-12-10T04:52:51.511Z,-0.93
2017-12-10T04:53:51.775Z,-1.02
2017-12-10T04:54:51.785Z,-0.96
2017-12-10T04:55:51.551Z,-0.86
2017-12-10T04:56:51.811Z,-0.89
2017-12-10T04:57:51.819Z,-0.91
2017-12-10T04:58:51.831Z,-0.85
2017-12-10T04:59:51.837Z,-0.86
2017-12-10T05:00:51.848Z,-0.85
2017-12-10T05:01:51.860Z,-0.83
2017-12-10T05:02:51.672Z,-0.97
2017-12-10T05:03:51.879Z,-0.85
2017-12-10T05:04:51.893Z,-0.86
2017-12-10T05:05:51.650Z,-0.89
2017-12-10T05:06:51.415Z,-0.78
2017-12-10T05:07:51.924Z,-0.94
2017-12-10T05:08:51.934Z,-0.93
2017-12-10T05:09:51.439Z,-1.11
2017-12-10T05:10:51.704Z,-1.09
2017-12-10T05:11:51.968Z,-0.97
2017-12-10T05:12:51.975Z,-0.94
2017-12-10T05:13:51.732Z,-1.02
2017-12-10T05:14:52.023Z,-1.11
2017-12-10T05:15:51.502Z,-1.14
2017-12-10T05:16:52.037Z,-1.09
2017-12-10T05:17:51.772Z,-1.14
2017-12-10T05:18:51.832Z,-1.09
2017-12-10T05:19:52.049Z,-0.96
2017-12-10T05:20:52.055Z,-1.01
2017-12-10T05:21:51.811Z,-1.04
2017-12-10T05:22:51.820Z,-1.04
2017-12-10T05:23:52.099Z,-1.02
2017-12-10T05:24:51.842Z,-1.04
2017-12-10T05:25:52.106Z,-1.05
2017-12-10T05:26:51.864Z,-1.01
2017-12-10T05:27:51.620Z,-1.05
2017-12-10T05:28:51.881Z,-1.07
2017-12-10T05:29:51.896Z,-1.08
2017-12-10T05:30:52.173Z,-1.11
2017-12-10T05:31:51.912Z,-1.2
2017-12-10T05:32:51.923Z,-1.23
2017-12-10T05:33:52.014Z,-1.22
2017-12-10T05:34:52.194Z,-1.26
2017-12-10T05:35:51.952Z,-1.09
2017-12-10T05:36:51.973Z,-1.14
2017-12-10T05:37:51.981Z,-1.14
2017-12-10T05:38:52.252Z,-1.14
2017-12-10T05:39:52.252Z,-1.22
2017-12-10T05:40:52.264Z,-1.14
2017-12-10T05:41:52.264Z,-1.32
2017-12-10T05:42:52.024Z,-1.26
2017-12-10T05:43:52.035Z,-1.27
2017-12-10T05:44:52.298Z,-1.37
2017-12-10T05:45:52.320Z,-1.27
2017-12-10T05:46:51.814Z,-1.26
2017-12-10T05:47:52.330Z,-1.25
2017-12-10T05:48:52.399Z,-1.25
2017-12-10T05:49:52.100Z,-1.33
2017-12-10T05:50:52.358Z,-1.37
2017-12-10T05:51:52.117Z,-1.29
2017-12-10T05:52:52.128Z,-1.37
2017-12-10T05:53:52.423Z,-1.4
2017-12-10T05:54:52.148Z,-1.61
2017-12-10T05:55:52.411Z,-1.43
2017-12-10T05:56:51.913Z,-1.5
2017-12-10T05:57:51.922Z,-1.58
2017-12-10T05:58:52.436Z,-1.59
2017-12-10T05:59:52.449Z,-1.72
2017-12-10T06:00:52.206Z,-1.53
2017-12-10T06:01:52.467Z,-1.68
2017-12-10T06:02:52.476Z,-1.58
2017-12-10T06:03:52.637Z,-1.58
2017-12-10T06:04:52.243Z,-1.4
2017-12-10T06:05:52.514Z,-1.51
2017-12-10T06:06:52.513Z,-1.56
2017-12-10T06:07:52.533Z,-1.51
2017-12-10T06:08:52.534Z,-1.54
2017-12-10T06:09:52.290Z,-1.56
2017-12-10T06:10:52.309Z,-1.5
2017-12-10T06:11:52.312Z,-1.5
2017-12-10T06:12:52.323Z,-1.48
2017-12-10T06:13:52.585Z,-1.43
2017-12-10T06:14:52.597Z,-1.59
2017-12-10T06:15:52.349Z,-1.44
2017-12-10T06:16:52.362Z,-1.44
2017-12-10T06:17:52.629Z,-1.41
2017-12-10T06:18:52.433Z,-1.47
2017-12-10T06:19:52.649Z,-1.46
2017-12-10T06:20:52.655Z,-1.46
2017-12-10T06:21:52.663Z,-1.54
2017-12-10T06:22:52.674Z,-1.76
2017-12-10T06:23:52.683Z,-1.69
2017-12-10T06:24:52.698Z,-1.54
2017-12-10T06:25:52.197Z,-1.58
2017-12-10T06:26:52.207Z,-1.44
2017-12-10T06:27:52.467Z,-1.47
2017-12-10T06:28:52.732Z,-1.37
2017-12-10T06:29:52.490Z,-1.51
2017-12-10T06:30:52.497Z,-1.53
2017-12-10T06:31:52.771Z,-1.48
2017-12-10T06:32:52.519Z,-1.41
2017-12-10T06:33:52.828Z,-1.41
2017-12-10T06:34:52.793Z,-1.44
2017-12-10T06:35:52.548Z,-1.41
2017-12-10T06:36:52.557Z,-1.44
2017-12-10T06:37:52.568Z,-1.46
2017-12-10T06:38:52.579Z,-1.33
2017-12-10T06:39:52.845Z,-1.37
2017-12-10T06:40:52.854Z,-1.35
2017-12-10T06:41:52.859Z,-1.37
2017-12-10T06:42:52.623Z,-1.32
2017-12-10T06:43:52.625Z,-1.3
2017-12-10T06:44:52.888Z,-1.33
2017-12-10T06:45:52.645Z,-1.38
2017-12-10T06:46:52.658Z,-1.61
2017-12-10T06:47:52.667Z,-1.44
2017-12-10T06:48:52.727Z,-1.48
2017-12-10T06:49:52.941Z,-1.5
2017-12-10T06:50:52.448Z,-1.48
2017-12-10T06:51:52.960Z,-1.32
2017-12-10T06:52:52.970Z,-1.3
2017-12-10T06:53:52.731Z,-1.29
2017-12-10T06:54:52.736Z,-1.29
2017-12-10T06:55:52.997Z,-1.41
2017-12-10T06:56:52.754Z,-1.38
2017-12-10T06:57:52.766Z,-1.4
2017-12-10T06:58:53.030Z,-1.32
2017-12-10T06:59:52.787Z,-1.33
2017-12-10T07:00:53.050Z,-1.35
2017-12-10T07:01:52.555Z,-1.33
2017-12-10T07:02:52.828Z,-1.41
2017-12-10T07:03:53.130Z,-1.26
2017-12-10T07:04:53.086Z,-1.35
2017-12-10T07:05:53.099Z,-1.53
2017-12-10T07:06:53.109Z,-1.41
2017-12-10T07:07:52.865Z,-1.33
2017-12-10T07:08:52.877Z,-1.46
2017-12-10T07:09:53.138Z,-1.43
2017-12-10T07:10:53.148Z,-1.43
2017-12-10T07:11:52.651Z,-1.53
2017-12-10T07:12:52.662Z,-1.62
2017-12-10T07:13:53.178Z,-1.62
2017-12-10T07:14:52.932Z,-1.47
2017-12-10T07:15:53.207Z,-1.53
2017-12-10T07:16:52.952Z,-1.54
2017-12-10T07:17:52.962Z,-1.47
2017-12-10T07:18:53.284Z,-1.43
2017-12-10T07:19:52.984Z,-1.53
2017-12-10T07:20:53.243Z,-1.41
2017-12-10T07:21:53.259Z,-1.37
2017-12-10T07:22:53.262Z,-1.5
2017-12-10T07:23:53.270Z,-1.48
2017-12-10T07:24:53.284Z,-1.47
2017-12-10T07:25:53.046Z,-1.5
2017-12-10T07:26:53.050Z,-1.41
2017-12-10T07:27:53.316Z,-1.48
2017-12-10T07:28:53.072Z,-1.53
2017-12-10T07:29:53.080Z,-1.5
2017-12-10T07:30:53.098Z,-1.59
2017-12-10T07:31:53.357Z,-1.54
2017-12-10T07:32:53.363Z,-1.59
2017-12-10T07:33:53.427Z,-1.61
2017-12-10T07:34:53.384Z,-1.68
2017-12-10T07:35:53.392Z,-1.64
2017-12-10T07:36:53.148Z,-1.54
2017-12-10T07:37:53.410Z,-1.53
2017-12-10T07:38:53.524Z,-1.53
2017-12-10T07:39:53.183Z,-1.43
2017-12-10T07:40:53.195Z,-1.46
2017-12-10T07:41:53.199Z,-1.43
2017-12-10T07:42:52.957Z,-1.38
2017-12-10T07:43:53.475Z,-1.4
2017-12-10T07:44:53.492Z,-1.35
2017-12-10T07:45:53.491Z,-1.37
2017-12-10T07:46:53.313Z,-1.25
2017-12-10T07:47:53.512Z,-1.17
2017-12-10T07:48:53.575Z,-1.23
2017-12-10T07:49:53.531Z,-1.37
2017-12-10T07:50:53.539Z,-1.27
2017-12-10T07:51:53.554Z,-1.22
2017-12-10T07:52:53.309Z,-1.11
2017-12-10T07:53:53.319Z,-1.09
2017-12-10T07:54:53.579Z,-1.08
2017-12-10T07:55:53.338Z,-0.83
2017-12-10T07:56:53.600Z,-0.74
2017-12-10T07:57:53.359Z,-0.72
2017-12-10T07:58:53.627Z,-0.82
2017-12-10T07:59:53.634Z,-0.82
2017-12-10T08:00:53.387Z,-0.71
2017-12-10T08:01:53.709Z,-0.72
2017-12-10T08:02:53.669Z,-0.83
2017-12-10T08:03:53.470Z,-0.75
2017-12-10T08:04:53.682Z,-0.83
2017-12-10T08:05:53.441Z,-0.64
2017-12-10T08:06:53.706Z,-0.65
2017-12-10T08:07:53.733Z,-0.71
2017-12-10T08:08:53.723Z,-0.64
2017-12-10T08:09:53.488Z,-0.65
2017-12-10T08:10:53.756Z,-0.71
2017-12-10T08:11:53.501Z,-0.61
2017-12-10T08:12:53.517Z,-0.67
2017-12-10T08:13:53.529Z,-0.65
2017-12-10T08:14:53.539Z,-0.65
2017-12-10T08:15:53.796Z,-0.68
2017-12-10T08:16:53.554Z,-0.75
2017-12-10T08:17:53.817Z,-0.67
2017-12-10T08:18:53.827Z,-0.59
2017-12-10T08:19:53.838Z,-0.53
2017-12-10T08:20:53.959Z,-0.67
2017-12-10T08:21:53.868Z,-0.54
2017-12-10T08:22:53.617Z,-0.47
2017-12-10T08:23:53.628Z,-0.34
2017-12-10T08:24:53.638Z,-0.28
2017-12-10T08:25:53.643Z,-0.25
2017-12-10T08:26:53.658Z,0
2017-12-10T08:27:53.667Z,0
2017-12-10T08:28:53.935Z,0.08
2017-12-10T08:29:53.688Z,0.12
2017-12-10T08:30:53.954Z,0.19
2017-12-10T08:31:54.040Z,0.25
2017-12-10T08:32:53.730Z,0.22
2017-12-10T08:33:53.992Z,0.22
2017-12-10T08:34:54.005Z,0.36
2017-12-10T08:35:53.806Z,0.4
2017-12-10T08:36:54.029Z,0.41
2017-12-10T08:37:53.780Z,0.49
2017-12-10T08:38:54.042Z,0.6
2017-12-10T08:39:53.801Z,0.6
2017-12-10T08:40:53.813Z,0.65
2017-12-10T08:41:54.079Z,0.58
2017-12-10T08:42:54.144Z,0.77
2017-12-10T08:43:54.100Z,0.78
2017-12-10T08:44:54.113Z,0.83
2017-12-10T08:45:54.123Z,0.92
2017-12-10T08:46:54.135Z,0.92
2017-12-10T08:47:54.146Z,0.92
2017-12-10T08:48:54.155Z,0.91
2017-12-10T08:49:53.664Z,0.91
2017-12-10T08:50:54.180Z,1.06
2017-12-10T08:51:54.190Z,1.08
2017-12-10T08:52:54.205Z,0.94
2017-12-10T08:53:53.960Z,0.95
2017-12-10T08:54:53.975Z,0.98
2017-12-10T08:55:54.256Z,1.02
2017-12-10T08:56:54.250Z,1.06
2017-12-10T08:57:54.262Z,1.16
2017-12-10T08:58:54.018Z,0.98
2017-12-10T08:59:54.301Z,1.08
2017-12-10T09:00:54.304Z,1.14
2017-12-10T09:01:54.316Z,1.04
2017-12-10T09:02:54.075Z,1.12
2017-12-10T09:03:54.332Z,1.13
2017-12-10T09:04:54.342Z,1.13
2017-12-10T09:05:54.354Z,1.14
2017-12-10T09:06:54.368Z,1.16
2017-12-10T09:07:54.384Z,1.16
2017-12-10T09:08:54.149Z,1.2
2017-12-10T09:09:54.152Z,1.13
2017-12-10T09:10:54.422Z,1.23
2017-12-10T09:11:53.932Z,1.23
2017-12-10T09:12:54.439Z,1.22
2017-12-10T09:13:54.200Z,1.24
2017-12-10T09:14:54.210Z,1.14
2017-12-10T09:15:54.473Z,1.16
2017-12-10T09:16:54.486Z,1.32
2017-12-10T09:17:54.452Z,1.34
2017-12-10T09:18:54.265Z,1.35
2017-12-10T09:19:54.522Z,1.31
2017-12-10T09:20:54.535Z,1.48
2017-12-10T09:21:54.291Z,1.48
2017-12-10T09:22:54.551Z,1.55
2017-12-10T09:23:54.312Z,1.41
2017-12-10T09:24:54.334Z,1.4
2017-12-10T09:25:54.603Z,1.31
2017-12-10T09:26:54.604Z,1.2
2017-12-10T09:27:54.110Z,1.06
2017-12-10T09:28:54.622Z,1.23
2017-12-10T09:29:54.637Z,1.14
2017-12-10T09:30:54.398Z,1.1
2017-12-10T09:31:54.667Z,1.01
2017-12-10T09:32:54.435Z,1.13
2017-12-10T09:33:54.446Z,1.06
2017-12-10T09:34:54.703Z,1.12
2017-12-10T09:35:54.208Z,1.02
2017-12-10T09:36:54.774Z,1.01
2017-12-10T09:37:54.740Z,1.04
2017-12-10T09:38:54.747Z,1.01
2017-12-10T09:39:54.766Z,1.16
2017-12-10T09:40:54.774Z,1.05
2017-12-10T09:41:54.782Z,1.04
2017-12-10T09:42:54.801Z,1.06
2017-12-10T09:43:54.807Z,1.23
2017-12-10T09:44:54.568Z,1.17
2017-12-10T09:45:54.578Z,1.31
2017-12-10T09:46:54.844Z,1.41
2017-12-10T09:47:54.852Z,1.44
2017-12-10T09:48:54.873Z,1.6
2017-12-10T09:49:54.373Z,1.45
2017-12-10T09:50:54.889Z,1.49
2017-12-10T09:51:54.932Z,1.56
2017-12-10T09:52:54.915Z,1.59
2017-12-10T09:53:54.982Z,1.68
2017-12-10T09:54:54.684Z,1.92
2017-12-10T09:55:54.697Z,1.95
2017-12-10T09:56:54.961Z,1.95
2017-12-10T09:57:54.973Z,2.02
2017-12-10T09:58:54.751Z,1.81
2017-12-10T09:59:54.999Z,1.73
2017-12-10T10:00:54.757Z,1.77
2017-12-10T10:01:54.767Z,1.74
2017-12-10T10:02:55.040Z,1.85
2017-12-10T10:03:55.055Z,1.8
2017-12-10T10:04:54.801Z,1.76
2017-12-10T10:05:55.068Z,1.73
2017-12-10T10:06:55.081Z,1.85
2017-12-10T10:07:55.143Z,1.87
2017-12-10T10:08:54.854Z,1.87
2017-12-10T10:09:55.125Z,1.95
2017-12-10T10:10:54.880Z,1.94
2017-12-10T10:11:54.887Z,2.1
2017-12-10T10:12:55.157Z,2.2
2017-12-10T10:13:55.168Z,2.1
2017-12-10T10:14:55.179Z,2.02
2017-12-10T10:15:54.936Z,1.84
2017-12-10T10:16:55.200Z,1.95
2017-12-10T10:17:55.214Z,1.78
2017-12-10T10:18:55.227Z,1.74
2017-12-10T10:19:55.238Z,1.76
2017-12-10T10:20:55.257Z,1.68
2017-12-10T10:21:55.259Z,1.62
2017-12-10T10:22:55.323Z,1.77
2017-12-10T10:23:55.282Z,1.63
2017-12-10T10:24:55.299Z,1.88
2017-12-10T10:25:55.310Z,1.92
2017-12-10T10:26:55.321Z,2
2017-12-10T10:27:55.330Z,2.1
2017-12-10T10:28:55.342Z,1.97
2017-12-10T10:29:55.379Z,1.73
2017-12-10T10:30:55.114Z,1.66
2017-12-10T10:31:55.380Z,1.76
2017-12-10T10:32:55.397Z,1.74
2017-12-10T10:33:54.907Z,1.89
2017-12-10T10:34:55.164Z,1.68
2017-12-10T10:35:55.175Z,1.74
2017-12-10T10:36:55.457Z,1.74
2017-12-10T10:37:55.259Z,1.7
2017-12-10T10:38:55.464Z,1.77
2017-12-10T10:39:55.475Z,1.88
2017-12-10T10:40:55.485Z,1.89
2017-12-10T10:41:54.995Z,1.76
2017-12-10T10:42:55.260Z,1.59
2017-12-10T10:43:55.526Z,1.52
2017-12-10T10:44:55.302Z,1.68
2017-12-10T10:45:55.294Z,1.78
2017-12-10T10:46:55.564Z,1.73
2017-12-10T10:47:55.575Z,1.7
2017-12-10T10:48:55.581Z,1.76
2017-12-10T10:49:55.350Z,1.66
2017-12-10T10:50:55.359Z,1.74
2017-12-10T10:51:55.673Z,1.87
2017-12-10T10:52:55.536Z,1.89
2017-12-10T10:53:55.649Z,1.89
2017-12-10T10:54:55.662Z,1.73
2017-12-10T10:55:55.441Z,1.66
2017-12-10T10:56:55.473Z,1.59
2017-12-10T10:57:55.704Z,1.66
2017-12-10T10:58:55.483Z,1.68
2017-12-10T10:59:55.727Z,1.7
2017-12-10T11:00:55.479Z,1.77
2017-12-10T11:01:55.743Z,1.7
2017-12-10T11:02:55.504Z,1.59
2017-12-10T11:03:55.560Z,1.6
2017-12-10T11:04:55.894Z,1.6
2017-12-10T11:05:55.789Z,1.71
2017-12-10T11:06:55.296Z,1.74
2017-12-10T11:07:55.867Z,1.67
2017-12-10T11:08:55.574Z,1.68
2017-12-10T11:09:55.844Z,1.76
2017-12-10T11:10:55.617Z,1.81
2017-12-10T11:11:55.614Z,1.92
2017-12-10T11:12:55.874Z,1.77
2017-12-10T11:13:55.887Z,1.76
2017-12-10T11:14:55.648Z,1.73
2017-12-10T11:15:55.662Z,1.6
2017-12-10T11:16:55.924Z,1.56
2017-12-10T11:17:55.687Z,1.6
2017-12-10T11:18:55.948Z,1.66
2017-12-10T11:19:55.456Z,1.63
2017-12-10T11:20:55.973Z,1.76
2017-12-10T11:21:55.781Z,1.77
2017-12-10T11:22:56.045Z,1.63
2017-12-10T11:23:56.007Z,1.6
2017-12-10T11:24:56.024Z,1.59
2017-12-10T11:25:56.032Z,1.76
2017-12-10T11:26:56.054Z,1.7
2017-12-10T11:27:56.053Z,1.53
2017-12-10T11:28:56.070Z,1.66
2017-12-10T11:29:56.080Z,1.66
2017-12-10T11:30:56.091Z,1.62
2017-12-10T11:31:56.103Z,1.6
2017-12-10T11:32:56.247Z,1.63
2017-12-10T11:33:56.141Z,1.56
2017-12-10T11:34:55.888Z,1.6
2017-12-10T11:35:56.161Z,1.55
2017-12-10T11:36:56.166Z,1.63
2017-12-10T11:37:56.237Z,1.44
2017-12-10T11:38:55.944Z,1.42
2017-12-10T11:39:56.264Z,1.37
2017-12-10T11:40:55.960Z,1.34
2017-12-10T11:41:56.233Z,1.3
2017-12-10T11:42:56.236Z,1.32
2017-12-10T11:43:56.252Z,1.3
2017-12-10T11:44:56.273Z,1.28
2017-12-10T11:45:56.030Z,1.22
2017-12-10T11:46:56.287Z,1.2
2017-12-10T11:47:56.306Z,1.23
2017-12-10T11:48:55.803Z,1.32
2017-12-10T11:49:56.071Z,1.42
2017-12-10T11:50:56.333Z,1.49
2017-12-10T11:51:56.344Z,1.66
2017-12-10T11:52:56.378Z,1.66
2017-12-10T11:53:56.116Z,1.52
2017-12-10T11:54:56.127Z,1.35
2017-12-10T11:55:56.392Z,1.34
2017-12-10T11:56:56.407Z,1.31
2017-12-10T11:57:56.425Z,1.22
2017-12-10T11:58:55.924Z,1.14
2017-12-10T11:59:56.196Z,1.08
2017-12-10T12:00:56.200Z,1.02
2017-12-10T12:01:56.470Z,1.12
2017-12-10T12:02:56.478Z,1.14
2017-12-10T12:03:56.496Z,1.26
2017-12-10T12:04:56.507Z,1.3
2017-12-10T12:05:56.512Z,1.2
2017-12-10T12:06:56.269Z,1.17
2017-12-10T12:07:56.535Z,1.12
2017-12-10T12:08:56.547Z,1.16
2017-12-10T12:09:56.056Z,1.23
2017-12-10T12:10:56.574Z,1.12
2017-12-10T12:11:56.584Z,1.1
2017-12-10T12:12:56.594Z,1.23
2017-12-10T12:13:56.103Z,0.96
2017-12-10T12:14:56.620Z,0.94
2017-12-10T12:15:56.632Z,0.86
2017-12-10T12:16:56.394Z,0.92
2017-12-10T12:17:56.657Z,0.95
2017-12-10T12:18:56.416Z,0.99
2017-12-10T12:19:56.682Z,0.95
2017-12-10T12:20:56.436Z,0.78
2017-12-10T12:21:56.708Z,0.78
2017-12-10T12:22:56.718Z,0.86
2017-12-10T12:23:56.744Z,0.87
2017-12-10T12:24:56.487Z,0.96
2017-12-10T12:25:56.810Z,1.01
2017-12-10T12:26:56.511Z,1.08
2017-12-10T12:27:56.520Z,1.08
2017-12-10T12:28:56.536Z,1.13
2017-12-10T12:29:56.805Z,1.23
2017-12-10T12:30:56.556Z,1.14
2017-12-10T12:31:56.569Z,0.98
2017-12-10T12:32:56.837Z,0.95
2017-12-10T12:33:56.844Z,0.92
2017-12-10T12:34:56.854Z,0.99
2017-12-10T12:35:56.618Z,1.06
2017-12-10T12:36:56.884Z,1.01
2017-12-10T12:37:56.638Z,0.99
2017-12-10T12:38:56.672Z,1.05
2017-12-10T12:39:56.974Z,1.16
2017-12-10T12:40:56.421Z,1.17
2017-12-10T12:41:56.433Z,1.23
2017-12-10T12:42:56.446Z,1.3
2017-12-10T12:43:56.962Z,1.4
2017-12-10T12:44:56.726Z,1.28
2017-12-10T12:45:56.992Z,1.2
2017-12-10T12:46:56.997Z,1.19
2017-12-10T12:47:56.503Z,1.23
2017-12-10T12:48:56.515Z,1.28
2017-12-10T12:49:56.784Z,1.32
2017-12-10T12:50:56.540Z,1.32
2017-12-10T12:51:56.805Z,1.31
2017-12-10T12:52:57.065Z,1.28
2017-12-10T12:53:57.077Z,1.32
2017-12-10T12:54:57.111Z,1.24
2017-12-10T12:55:57.107Z,1.23
2017-12-10T12:56:56.622Z,1.23
2017-12-10T12:57:57.126Z,1.14
2017-12-10T12:58:56.887Z,1.13
2017-12-10T12:59:57.165Z,1.22
2017-12-10T13:00:56.657Z,1.02
2017-12-10T13:01:57.179Z,1.01
2017-12-10T13:02:57.186Z,0.99
2017-12-10T13:03:56.947Z,1.17
2017-12-10T13:04:57.205Z,1.05
2017-12-10T13:05:57.225Z,1.01
2017-12-10T13:06:57.235Z,1.04
2017-12-10T13:07:57.251Z,1.02
2017-12-10T13:08:56.750Z,1.13
2017-12-10T13:09:57.316Z,0.96
2017-12-10T13:10:57.024Z,1.05